sensor_id;sensor_type;location;lat;lon;timestamp;temperature;humidity
32728;DHT22;55292;51.844;19.246;2023-04-06T00:02:36;-4.30;99.90
32728;DHT22;55292;51.844;19.246;2023-04-06T00:43:00;-5.20;99.90
32728;DHT22;55292;51.844;19.246;2023-04-06T00:48:03;-5.20;99.90
32728;DHT22;55292;51.844;19.246;2023-04-06T00:58:09;-5.30;99.90
32728;DHT22;55292;51.844;19.246;2023-04-06T01:08:24;-5.70;99.90
32728;DHT22;55292;51.844;19.246;2023-04-06T01:29:02;-5.50;99.90
32728;DHT22;55292;51.844;19.246;2023-04-06T01:44:18;-5.70;99.90
32728;DHT22;55292;51.844;19.246;2023-04-06T01:49:32;-5.70;99.90
32728;DHT22;55292;51.844;19.246;2023-04-06T02:00:04;-5.90;99.90
32728;DHT22;55292;51.844;19.246;2023-04-06T02:05:20;-6.00;99.90
32728;DHT22;55292;51.844;19.246;2023-04-06T02:35:44;-6.10;99.90
32728;DHT22;55292;51.844;19.246;2023-04-06T02:41:14;-6.20;99.90
32728;DHT22;55292;51.844;19.246;2023-04-06T02:47:26;-6.20;99.90
32728;DHT22;55292;51.844;19.246;2023-04-06T02:53:23;-6.10;99.90
32728;DHT22;55292;51.844;19.246;2023-04-06T02:59:06;-6.30;99.90
32728;DHT22;55292;51.844;19.246;2023-04-06T03:05:06;-6.30;99.90
32728;DHT22;55292;51.844;19.246;2023-04-06T03:10:48;-6.50;99.90
32728;DHT22;55292;51.844;19.246;2023-04-06T03:16:16;-6.50;99.90
32728;DHT22;55292;51.844;19.246;2023-04-06T03:22:00;-6.50;99.90
32728;DHT22;55292;51.844;19.246;2023-04-06T03:27:55;-6.30;99.90
32728;DHT22;55292;51.844;19.246;2023-04-06T03:34:13;-6.40;99.90
32728;DHT22;55292;51.844;19.246;2023-04-06T03:39:54;-6.00;99.90
32728;DHT22;55292;51.844;19.246;2023-04-06T03:46:12;-5.70;99.90
32728;DHT22;55292;51.844;19.246;2023-04-06T03:52:03;-5.60;99.90
32728;DHT22;55292;51.844;19.246;2023-04-06T03:57:44;-5.00;99.90
32728;DHT22;55292;51.844;19.246;2023-04-06T04:03:08;-4.70;99.90
32728;DHT22;55292;51.844;19.246;2023-04-06T04:08:48;-4.50;99.90
32728;DHT22;55292;51.844;19.246;2023-04-06T04:14:34;-4.30;99.90
32728;DHT22;55292;51.844;19.246;2023-04-06T04:20:03;-3.90;99.90
32728;DHT22;55292;51.844;19.246;2023-04-06T04:31:09;-3.50;99.90
32728;DHT22;55292;51.844;19.246;2023-04-06T04:36:41;-3.20;99.90
32728;DHT22;55292;51.844;19.246;2023-04-06T04:48:03;-2.90;99.90
32728;DHT22;55292;51.844;19.246;2023-04-06T04:53:54;-2.80;99.90
32728;DHT22;55292;51.844;19.246;2023-04-06T05:00:14;-2.50;99.90
32728;DHT22;55292;51.844;19.246;2023-04-06T05:06:07;-2.40;99.90
32728;DHT22;55292;51.844;19.246;2023-04-06T05:11:49;-1.90;99.90
32728;DHT22;55292;51.844;19.246;2023-04-06T05:17:44;-1.70;99.90
32728;DHT22;55292;51.844;19.246;2023-04-06T05:23:15;-1.40;99.90
32728;DHT22;55292;51.844;19.246;2023-04-06T05:28:19;-1.50;99.90
32728;DHT22;55292;51.844;19.246;2023-04-06T05:33:21;-1.10;99.90
32728;DHT22;55292;51.844;19.246;2023-04-06T05:38:46;-1.10;99.90
32728;DHT22;55292;51.844;19.246;2023-04-06T05:44:00;-0.90;99.90
32728;DHT22;55292;51.844;19.246;2023-04-06T05:49:04;-0.70;99.90
32728;DHT22;55292;51.844;19.246;2023-04-06T05:54:10;-0.40;99.90
32728;DHT22;55292;51.844;19.246;2023-04-06T05:59:13;-0.40;99.90
32728;DHT22;55292;51.844;19.246;2023-04-06T06:04:17;-0.10;99.90
32728;DHT22;55292;51.844;19.246;2023-04-06T06:09:22;-0.10;99.90
32728;DHT22;55292;51.844;19.246;2023-04-06T06:14:45;0.00;99.90
32728;DHT22;55292;51.844;19.246;2023-04-06T06:19:48;0.10;99.90
32728;DHT22;55292;51.844;19.246;2023-04-06T06:24:51;0.20;99.90
32728;DHT22;55292;51.844;19.246;2023-04-06T06:29:55;0.40;99.90
32728;DHT22;55292;51.844;19.246;2023-04-06T06:34:59;0.50;99.90
32728;DHT22;55292;51.844;19.246;2023-04-06T06:40:03;0.50;99.90
32728;DHT22;55292;51.844;19.246;2023-04-06T06:45:09;0.60;99.90
32728;DHT22;55292;51.844;19.246;2023-04-06T06:50:12;0.80;99.90
32728;DHT22;55292;51.844;19.246;2023-04-06T06:55:15;1.10;99.90
32728;DHT22;55292;51.844;19.246;2023-04-06T07:00:18;1.30;99.90
32728;DHT22;55292;51.844;19.246;2023-04-06T07:05:22;1.30;99.90
32728;DHT22;55292;51.844;19.246;2023-04-06T07:10:32;1.40;99.90
32728;DHT22;55292;51.844;19.246;2023-04-06T07:15:34;1.60;99.90
32728;DHT22;55292;51.844;19.246;2023-04-06T07:20:37;1.60;99.90
32728;DHT22;55292;51.844;19.246;2023-04-06T07:25:40;1.90;99.90
32728;DHT22;55292;51.844;19.246;2023-04-06T07:30:44;2.10;99.90
32728;DHT22;55292;51.844;19.246;2023-04-06T07:35:47;2.20;99.90
32728;DHT22;55292;51.844;19.246;2023-04-06T07:40:51;2.50;99.90
32728;DHT22;55292;51.844;19.246;2023-04-06T07:45:54;3.10;99.90
32728;DHT22;55292;51.844;19.246;2023-04-06T07:51:06;3.20;99.90
32728;DHT22;55292;51.844;19.246;2023-04-06T07:56:17;3.10;99.90
32728;DHT22;55292;51.844;19.246;2023-04-06T08:01:27;3.00;99.90
32728;DHT22;55292;51.844;19.246;2023-04-06T08:06:30;3.30;99.90
32728;DHT22;55292;51.844;19.246;2023-04-06T08:11:33;3.50;99.90
32728;DHT22;55292;51.844;19.246;2023-04-06T08:16:35;3.70;99.90
32728;DHT22;55292;51.844;19.246;2023-04-06T08:21:38;3.70;99.90
32728;DHT22;55292;51.844;19.246;2023-04-06T08:26:42;4.70;99.90
32728;DHT22;55292;51.844;19.246;2023-04-06T08:31:45;5.00;99.90
32728;DHT22;55292;51.844;19.246;2023-04-06T08:36:47;5.00;99.30
32728;DHT22;55292;51.844;19.246;2023-04-06T08:41:52;5.10;97.80
32728;DHT22;55292;51.844;19.246;2023-04-06T08:46:54;4.90;96.50
32728;DHT22;55292;51.844;19.246;2023-04-06T08:51:57;5.00;96.10
32728;DHT22;55292;51.844;19.246;2023-04-06T08:57:02;4.80;93.80
32728;DHT22;55292;51.844;19.246;2023-04-06T09:02:06;4.80;92.50
32728;DHT22;55292;51.844;19.246;2023-04-06T09:07:09;4.80;92.70
32728;DHT22;55292;51.844;19.246;2023-04-06T09:12:31;5.00;91.90
32728;DHT22;55292;51.844;19.246;2023-04-06T09:17:34;4.80;92.10
32728;DHT22;55292;51.844;19.246;2023-04-06T09:22:38;4.90;92.50
32728;DHT22;55292;51.844;19.246;2023-04-06T09:27:40;4.90;91.40
32728;DHT22;55292;51.844;19.246;2023-04-06T09:32:50;5.30;90.40
32728;DHT22;55292;51.844;19.246;2023-04-06T09:37:53;5.40;90.60
32728;DHT22;55292;51.844;19.246;2023-04-06T09:42:56;5.20;90.30
32728;DHT22;55292;51.844;19.246;2023-04-06T09:48:01;5.00;90.40
32728;DHT22;55292;51.844;19.246;2023-04-06T09:53:06;4.90;90.70
32728;DHT22;55292;51.844;19.246;2023-04-06T09:58:16;5.20;91.10
32728;DHT22;55292;51.844;19.246;2023-04-06T10:08:50;5.60;89.10
32728;DHT22;55292;51.844;19.246;2023-04-06T10:13:55;5.80;87.60
32728;DHT22;55292;51.844;19.246;2023-04-06T10:19:13;5.70;89.10
32728;DHT22;55292;51.844;19.246;2023-04-06T10:24:19;5.60;90.00
32728;DHT22;55292;51.844;19.246;2023-04-06T10:29:21;5.60;89.70
32728;DHT22;55292;51.844;19.246;2023-04-06T10:34:34;5.80;89.50
32728;DHT22;55292;51.844;19.246;2023-04-06T10:39:46;5.70;90.30
32728;DHT22;55292;51.844;19.246;2023-04-06T10:44:49;5.40;91.00
32728;DHT22;55292;51.844;19.246;2023-04-06T10:49:52;5.60;91.80
32728;DHT22;55292;51.844;19.246;2023-04-06T10:54:55;5.50;91.00
32728;DHT22;55292;51.844;19.246;2023-04-06T10:59:58;5.70;90.90
32728;DHT22;55292;51.844;19.246;2023-04-06T11:05:01;6.40;90.30
32728;DHT22;55292;51.844;19.246;2023-04-06T11:10:04;6.10;90.40
32728;DHT22;55292;51.844;19.246;2023-04-06T11:15:18;6.10;91.40
32728;DHT22;55292;51.844;19.246;2023-04-06T11:20:21;5.60;91.60
32728;DHT22;55292;51.844;19.246;2023-04-06T11:25:26;6.30;91.20
32728;DHT22;55292;51.844;19.246;2023-04-06T11:30:30;5.80;91.10
32728;DHT22;55292;51.844;19.246;2023-04-06T11:35:35;5.70;92.10
32728;DHT22;55292;51.844;19.246;2023-04-06T11:40:39;5.80;91.30
32728;DHT22;55292;51.844;19.246;2023-04-06T11:45:42;5.70;92.40
32728;DHT22;55292;51.844;19.246;2023-04-06T11:50:55;5.40;92.90
32728;DHT22;55292;51.844;19.246;2023-04-06T11:55:58;4.90;93.50
32728;DHT22;55292;51.844;19.246;2023-04-06T12:01:04;4.60;96.30
32728;DHT22;55292;51.844;19.246;2023-04-06T12:06:07;4.60;96.10
32728;DHT22;55292;51.844;19.246;2023-04-06T12:11:11;4.90;96.50
32728;DHT22;55292;51.844;19.246;2023-04-06T12:16:13;4.60;99.50
32728;DHT22;55292;51.844;19.246;2023-04-06T12:21:17;4.60;99.90
32728;DHT22;55292;51.844;19.246;2023-04-06T12:26:20;4.70;99.90
32728;DHT22;55292;51.844;19.246;2023-04-06T12:31:23;4.90;99.90
32728;DHT22;55292;51.844;19.246;2023-04-06T12:36:27;4.90;99.90
32728;DHT22;55292;51.844;19.246;2023-04-06T12:41:30;3.80;99.90
32728;DHT22;55292;51.844;19.246;2023-04-06T12:46:33;3.90;99.90
32728;DHT22;55292;51.844;19.246;2023-04-06T12:51:35;4.10;99.90
32728;DHT22;55292;51.844;19.246;2023-04-06T12:56:38;4.00;99.90
32728;DHT22;55292;51.844;19.246;2023-04-06T13:01:41;4.00;99.90
32728;DHT22;55292;51.844;19.246;2023-04-06T13:06:44;3.40;99.90
32728;DHT22;55292;51.844;19.246;2023-04-06T13:11:46;3.50;99.90
32728;DHT22;55292;51.844;19.246;2023-04-06T13:16:49;3.20;99.90
32728;DHT22;55292;51.844;19.246;2023-04-06T13:21:53;3.20;99.90
32728;DHT22;55292;51.844;19.246;2023-04-06T13:26:56;3.30;99.90
32728;DHT22;55292;51.844;19.246;2023-04-06T13:31:59;3.40;99.90
32728;DHT22;55292;51.844;19.246;2023-04-06T13:37:02;3.40;99.90
32728;DHT22;55292;51.844;19.246;2023-04-06T13:42:05;3.50;99.90
32728;DHT22;55292;51.844;19.246;2023-04-06T13:47:08;3.70;99.90
32728;DHT22;55292;51.844;19.246;2023-04-06T13:52:12;3.90;99.90
32728;DHT22;55292;51.844;19.246;2023-04-06T13:57:14;3.90;99.90
32728;DHT22;55292;51.844;19.246;2023-04-06T14:07:22;3.50;99.90
32728;DHT22;55292;51.844;19.246;2023-04-06T14:12:26;3.50;99.90
32728;DHT22;55292;51.844;19.246;2023-04-06T14:17:29;3.40;99.90
32728;DHT22;55292;51.844;19.246;2023-04-06T14:22:32;3.40;99.90
32728;DHT22;55292;51.844;19.246;2023-04-06T14:27:34;3.50;99.90
32728;DHT22;55292;51.844;19.246;2023-04-06T14:32:37;3.50;99.90
32728;DHT22;55292;51.844;19.246;2023-04-06T14:37:40;3.60;99.90
32728;DHT22;55292;51.844;19.246;2023-04-06T14:42:42;3.20;99.90
32728;DHT22;55292;51.844;19.246;2023-04-06T14:47:45;2.90;99.90
32728;DHT22;55292;51.844;19.246;2023-04-06T14:52:47;2.70;99.90
32728;DHT22;55292;51.844;19.246;2023-04-06T14:57:50;2.60;99.90
32728;DHT22;55292;51.844;19.246;2023-04-06T15:07:56;2.40;99.90
32728;DHT22;55292;51.844;19.246;2023-04-06T15:12:59;2.30;99.90
32728;DHT22;55292;51.844;19.246;2023-04-06T15:18:02;2.20;99.90
32728;DHT22;55292;51.844;19.246;2023-04-06T15:23:05;2.30;99.90
32728;DHT22;55292;51.844;19.246;2023-04-06T15:28:07;2.10;99.90
32728;DHT22;55292;51.844;19.246;2023-04-06T15:38:13;2.10;99.90
32728;DHT22;55292;51.844;19.246;2023-04-06T15:43:16;2.10;99.90
32728;DHT22;55292;51.844;19.246;2023-04-06T15:53:22;1.80;99.90
32728;DHT22;55292;51.844;19.246;2023-04-06T16:08:31;1.60;99.90
32728;DHT22;55292;51.844;19.246;2023-04-06T16:18:37;1.60;99.90
32728;DHT22;55292;51.844;19.246;2023-04-06T16:23:39;1.70;99.90
32728;DHT22;55292;51.844;19.246;2023-04-06T16:33:51;1.60;99.90
32728;DHT22;55292;51.844;19.246;2023-04-06T16:38:55;1.60;99.90
32728;DHT22;55292;51.844;19.246;2023-04-06T16:43:58;1.50;99.90
32728;DHT22;55292;51.844;19.246;2023-04-06T16:49:02;1.50;99.90
32728;DHT22;55292;51.844;19.246;2023-04-06T16:54:06;1.50;99.90
32728;DHT22;55292;51.844;19.246;2023-04-06T16:59:09;1.50;99.90
32728;DHT22;55292;51.844;19.246;2023-04-06T17:04:12;1.30;99.90
32728;DHT22;55292;51.844;19.246;2023-04-06T17:09:14;1.40;99.90
32728;DHT22;55292;51.844;19.246;2023-04-06T17:24:23;1.30;99.90
32728;DHT22;55292;51.844;19.246;2023-04-06T17:34:29;1.40;99.90
32728;DHT22;55292;51.844;19.246;2023-04-06T17:49:38;1.40;99.90
32728;DHT22;55292;51.844;19.246;2023-04-06T17:54:41;1.40;99.90
32728;DHT22;55292;51.844;19.246;2023-04-06T18:04:52;1.40;99.90
32728;DHT22;55292;51.844;19.246;2023-04-06T18:09:55;1.40;99.90
32728;DHT22;55292;51.844;19.246;2023-04-06T18:14:58;1.40;99.90
32728;DHT22;55292;51.844;19.246;2023-04-06T18:20:00;1.40;99.90
32728;DHT22;55292;51.844;19.246;2023-04-06T18:25:04;1.40;99.90
32728;DHT22;55292;51.844;19.246;2023-04-06T18:35:10;1.40;99.90
32728;DHT22;55292;51.844;19.246;2023-04-06T18:50:40;1.40;99.90
32728;DHT22;55292;51.844;19.246;2023-04-06T18:55:43;1.40;99.90
32728;DHT22;55292;51.844;19.246;2023-04-06T19:10:53;1.30;99.90
32728;DHT22;55292;51.844;19.246;2023-04-06T19:15:56;1.50;99.90
32728;DHT22;55292;51.844;19.246;2023-04-06T19:21:03;1.50;99.90
32728;DHT22;55292;51.844;19.246;2023-04-06T19:26:11;1.50;99.90
32728;DHT22;55292;51.844;19.246;2023-04-06T19:31:16;1.50;99.90
32728;DHT22;55292;51.844;19.246;2023-04-06T19:41:23;1.60;99.90
32728;DHT22;55292;51.844;19.246;2023-04-06T19:46:27;1.60;99.90
32728;DHT22;55292;51.844;19.246;2023-04-06T19:51:31;1.60;99.90
32728;DHT22;55292;51.844;19.246;2023-04-06T20:01:40;1.60;99.90
32728;DHT22;55292;51.844;19.246;2023-04-06T20:06:43;1.60;99.90
32728;DHT22;55292;51.844;19.246;2023-04-06T20:11:46;1.60;99.90
32728;DHT22;55292;51.844;19.246;2023-04-06T20:16:48;1.50;99.90
32728;DHT22;55292;51.844;19.246;2023-04-06T20:21:53;1.60;99.90
32728;DHT22;55292;51.844;19.246;2023-04-06T20:32:00;1.60;99.90
32728;DHT22;55292;51.844;19.246;2023-04-06T20:52:13;1.70;99.90
32728;DHT22;55292;51.844;19.246;2023-04-06T20:57:15;1.70;99.90
32728;DHT22;55292;51.844;19.246;2023-04-06T21:02:18;1.60;99.90
32728;DHT22;55292;51.844;19.246;2023-04-06T21:07:21;1.70;99.90
32728;DHT22;55292;51.844;19.246;2023-04-06T21:12:24;1.80;99.90
32728;DHT22;55292;51.844;19.246;2023-04-06T21:17:28;1.80;99.90
32728;DHT22;55292;51.844;19.246;2023-04-06T21:27:33;1.80;99.90
32728;DHT22;55292;51.844;19.246;2023-04-06T21:37:39;1.70;99.90
32728;DHT22;55292;51.844;19.246;2023-04-06T21:42:42;1.70;99.90
32728;DHT22;55292;51.844;19.246;2023-04-06T21:57:53;1.50;99.90
32728;DHT22;55292;51.844;19.246;2023-04-06T22:02:58;1.70;99.90
32728;DHT22;55292;51.844;19.246;2023-04-06T22:13:04;1.70;99.90
32728;DHT22;55292;51.844;19.246;2023-04-06T22:23:10;1.70;99.90
32728;DHT22;55292;51.844;19.246;2023-04-06T22:28:13;1.70;99.90
32728;DHT22;55292;51.844;19.246;2023-04-06T22:38:18;1.70;99.90
32728;DHT22;55292;51.844;19.246;2023-04-06T22:43:21;1.70;99.90
32728;DHT22;55292;51.844;19.246;2023-04-06T22:48:23;1.70;99.90
32728;DHT22;55292;51.844;19.246;2023-04-06T22:58:29;1.60;99.90
32728;DHT22;55292;51.844;19.246;2023-04-06T23:08:35;1.70;99.90
32728;DHT22;55292;51.844;19.246;2023-04-06T23:23:44;1.70;99.90
32728;DHT22;55292;51.844;19.246;2023-04-06T23:33:49;1.70;99.90
32728;DHT22;55292;51.844;19.246;2023-04-06T23:38:52;1.60;99.90
32728;DHT22;55292;51.844;19.246;2023-04-06T23:43:55;1.60;99.90
32728;DHT22;55292;51.844;19.246;2023-04-06T23:48:58;1.70;99.90
32728;DHT22;55292;51.844;19.246;2023-04-06T23:54:00;1.70;99.90
32728;DHT22;55292;51.844;19.246;2023-04-06T23:59:06;1.70;99.90
